Time;durP1;ratioP1;P1;durP2;ratioP2;P2;SDS_P1;SDS_P2;PMS_P1;PMS_P2;Temp;Humidity;BMP_temperature;BMP_pressure;BME280_temperature;BME280_humidity;BME280_pressure;Samples;Min_cycle;Max_cycle;Signal;HPM_P1;HPM_P2
2021/12/14 00:01:34;;;;;;;113.85;38.58;;;;;;;-3.66;92.69;101492.78;1692276;84;25669;-75
2021/12/14 00:04:12;;;;;;;89.00;32.40;;;;;;;-3.65;92.69;101492.27;1693139;84;25471;-75
2021/12/14 00:06:41;;;;;;;107.85;35.88;;;;;;;-3.69;92.48;101493.14;1692845;84;25688;-74
2021/12/14 00:09:21;;;;;;;99.30;32.48;;;;;;;-3.73;92.38;101491.85;1693177;84;30396;-78
2021/12/14 00:17:12;;;;;;;;;;;;;;;-3.84;92.53;101492.34;1695584;84;25723;-76
2021/12/14 00:19:39;;;;;;;88.17;32.40;;;;;;;-3.82;92.59;101500.39;1693019;84;25819;-75
2021/12/14 00:22:20;;;;;;;93.03;32.33;;;;;;;-3.82;92.68;101503.03;1693003;84;25585;-75
2021/12/14 00:24:35;;;;;;;95.15;30.50;;;;;;;-3.80;92.93;101502.38;1686401;83;27451;-73
2021/12/14 00:27:06;;;;;;;83.95;31.55;;;;;;;-3.80;92.84;101504.18;1677889;85;25512;-74
2021/12/14 00:29:41;;;;;;;86.30;31.52;;;;;;;-3.81;92.64;101507.84;1678147;85;25702;-76
2021/12/14 00:32:14;;;;;;;92.78;32.98;;;;;;;-3.82;92.61;101507.00;1677646;84;26312;-75
2021/12/14 00:34:43;;;;;;;90.20;32.48;;;;;;;-3.80;92.68;101509.47;1677889;85;25493;-76
2021/12/14 00:37:15;;;;;;;91.60;33.20;;;;;;;-3.81;92.78;101516.59;1678396;85;27942;-76
2021/12/14 00:39:42;;;;;;;108.10;33.18;;;;;;;-3.76;93.04;101520.02;1655581;85;25808;-74
2021/12/14 00:42:11;;;;;;;91.65;29.98;;;;;;;-3.72;93.13;101517.30;1677890;85;25424;-75
2021/12/14 00:44:38;;;;;;;81.80;30.92;;;;;;;-3.70;93.01;101524.55;1678016;85;25694;-77
2021/12/14 00:47:05;;;;;;;89.03;31.80;;;;;;;-3.72;92.63;101527.07;1678153;85;25633;-76
2021/12/14 00:49:33;;;;;;;95.45;29.98;;;;;;;-3.74;92.63;101534.38;1677873;85;27329;-76
2021/12/14 00:52:01;;;;;;;95.72;34.30;;;;;;;-3.72;92.84;101524.42;1678144;85;25330;-76
2021/12/14 00:54:28;;;;;;;87.07;32.03;;;;;;;-3.73;92.85;101526.23;1678311;85;25608;-76
2021/12/14 00:56:56;;;;;;;89.03;31.87;;;;;;;-3.69;92.94;101530.16;1677701;85;25658;-75
2021/12/14 00:59:24;;;;;;;99.05;33.13;;;;;;;-3.71;92.65;101533.50;1678125;85;25585;-74
2021/12/14 01:01:58;;;;;;;84.95;31.48;;;;;;;-3.72;92.75;101532.36;1677991;84;27496;-74
2021/12/14 01:04:30;;;;;;;88.00;28.87;;;;;;;-3.72;92.72;101526.56;1677418;84;25663;-75
2021/12/14 01:06:59;;;;;;;81.45;29.72;;;;;;;-3.71;92.72;101539.27;1678130;84;25456;-75
2021/12/14 01:09:31;;;;;;;78.83;28.20;;;;;;;-3.70;92.83;101527.19;1678467;85;32899;-75
2021/12/14 01:12:07;;;;;;;80.87;28.20;;;;;;;-3.68;92.89;101532.30;1678431;85;25646;-75
2021/12/14 01:14:46;;;;;;;70.72;26.48;;;;;;;-3.66;92.81;101530.28;1677956;85;27331;-75
2021/12/14 01:17:25;;;;;;;;;;;;;;;-3.66;92.74;101517.91;1680477;84;25780;-76
2021/12/14 01:19:54;;;;;;;69.30;23.65;;;;;;;-3.66;92.58;101507.80;1676752;85;25448;-76
2021/12/14 01:25:03;;;;;;;76.50;26.82;;;;;;;-3.68;92.57;101517.24;1678383;84;25633;-75
2021/12/14 01:27:47;;;;;;;74.60;25.92;;;;;;;-3.71;92.34;101515.47;1666102;85;27419;-76
2021/12/14 01:30:19;;;;;;;66.15;25.88;;;;;;;-3.71;92.37;101518.95;1675613;85;25884;-77
2021/12/14 01:32:48;;;;;;;70.95;26.27;;;;;;;-3.72;92.43;101518.63;1678234;85;25214;-76
2021/12/14 01:35:21;;;;;;;66.40;26.05;;;;;;;-3.70;92.63;101515.29;1678328;84;25649;-76
2021/12/14 01:38:00;;;;;;;65.72;24.75;;;;;;;-3.71;92.43;101512.34;1678461;85;25458;-77
2021/12/14 01:40:45;;;;;;;71.33;26.57;;;;;;;-3.71;92.44;101511.50;1677066;84;27344;-76
2021/12/14 01:42:47;;;;;;;76.22;26.40;;;;;;;-3.68;92.60;101504.53;1675282;84;25713;-76
2021/12/14 01:45:23;;;;;;;62.75;24.37;;;;;;;-3.65;92.57;101501.52;1681205;85;25398;-77
2021/12/14 01:47:54;;;;;;;69.67;25.55;;;;;;;-3.64;92.55;101515.08;1661456;85;25485;-75
2021/12/14 01:50:35;;;;;;;67.42;24.45;;;;;;;-3.61;92.56;101513.36;1681111;84;25219;-74
2021/12/14 01:53:04;;;;;;;71.33;25.77;;;;;;;-3.61;92.37;101512.88;1678413;84;27540;-75
2021/12/14 01:55:35;;;;;;;80.35;26.93;;;;;;;-3.61;92.30;101512.88;1681129;84;25597;-75
2021/12/14 01:58:04;;;;;;;74.20;25.88;;;;;;;-3.60;92.29;101503.11;1681171;85;25233;-75
2021/12/14 02:00:46;;;;;;;70.83;25.90;;;;;;;-3.60;92.18;101504.44;1681175;85;25646;-75
2021/12/14 02:03:34;;;;;;;69.07;24.25;;;;;;;-3.64;92.01;101507.14;1679599;85;25215;-76
2021/12/14 02:06:04;;;;;;;65.62;24.85;;;;;;;-3.67;92.09;101496.92;1676815;85;27339;-75
2021/12/14 02:08:35;;;;;;;78.50;26.15;;;;;;;-3.68;92.38;101498.73;1678206;85;25556;-76
2021/12/14 02:11:06;;;;;;;80.77;27.93;;;;;;;-3.62;92.62;101497.19;1678313;85;25649;-76
2021/12/14 02:13:48;;;;;;;69.15;25.30;;;;;;;-3.60;92.79;101493.85;1678244;85;25870;-76
2021/12/14 02:16:18;;;;;;;73.72;25.90;;;;;;;-3.58;92.72;101487.36;1678282;84;25492;-75
2021/12/14 02:18:50;;;;;;;71.28;26.87;;;;;;;-3.61;92.19;101483.78;1678259;85;27918;-76
2021/12/14 02:21:18;;;;;;;75.45;25.32;;;;;;;-3.68;91.85;101488.15;1678056;85;25561;-75
2021/12/14 02:23:52;;;;;;;75.55;25.20;;;;;;;-3.74;91.87;101496.84;1678278;85;25559;-76
2021/12/14 02:26:25;;;;;;;70.60;25.23;;;;;;;-3.80;91.83;101499.73;1678151;84;26130;-75
2021/12/14 02:28:55;;;;;;;73.95;25.95;;;;;;;-3.83;92.03;101496.12;1678337;85;25624;-75
2021/12/14 02:31:24;;;;;;;74.00;25.48;;;;;;;-3.83;92.21;101487.35;1678265;83;28064;-75
2021/12/14 02:33:54;;;;;;;73.85;26.45;;;;;;;-3.83;92.37;101486.88;1678322;84;25575;-75
2021/12/14 02:36:37;;;;;;;76.50;27.77;;;;;;;-3.82;92.54;101489.81;1678335;85;25616;-75
2021/12/14 02:39:21;;;;;;;79.65;26.80;;;;;;;-3.79;92.73;101489.97;1678247;84;25615;-76
2021/12/14 02:41:48;;;;;;;74.90;25.23;;;;;;;-3.79;92.75;101490.77;1676471;84;25570;-76
2021/12/14 02:44:16;;;;;;;72.27;25.77;;;;;;;-3.80;92.51;101490.48;1678299;85;27910;-76
2021/12/14 02:46:47;;;;;;;69.25;25.37;;;;;;;-3.81;92.47;101486.18;1678179;85;25680;-76
2021/12/14 02:49:19;;;;;;;71.65;25.90;;;;;;;-3.83;92.21;101486.03;1657924;85;25666;-76
2021/12/14 02:51:56;;;;;;;77.15;26.57;;;;;;;-3.92;91.90;101487.14;1656672;85;25881;-76
2021/12/14 02:54:31;;;;;;;68.17;25.27;;;;;;;-3.97;92.03;101484.56;1678280;84;25420;-76
2021/12/14 02:57:14;;;;;;;79.40;27.00;;;;;;;-3.99;92.15;101481.26;1678168;85;27442;-75
2021/12/14 02:59:45;;;;;;;78.92;27.37;;;;;;;-4.02;92.21;101473.72;1678189;85;25634;-76
2021/12/14 03:02:16;;;;;;;66.70;25.52;;;;;;;-4.05;92.29;101482.01;1656714;85;25525;-75
2021/12/14 03:04:50;;;;;;;68.52;26.07;;;;;;;-4.07;92.36;101476.58;1677537;85;25809;-75
2021/12/14 03:07:24;;;;;;;70.60;26.00;;;;;;;-4.07;92.58;101481.86;1677030;84;25195;-76
2021/12/14 03:10:05;;;;;;;77.10;25.48;;;;;;;-4.05;92.74;101485.98;1678265;85;27859;-74
2021/12/14 03:12:39;;;;;;;77.22;24.18;;;;;;;-4.09;92.54;101479.40;1677084;84;25389;-75
2021/12/14 03:15:14;;;;;;;68.70;26.93;;;;;;;-4.11;92.53;101481.41;1657498;85;25498;-75
2021/12/14 03:17:43;;;;;;;74.47;24.40;;;;;;;-4.11;92.61;101488.02;1678326;85;25625;-76
2021/12/14 03:20:21;;;;;;;78.25;26.05;;;;;;;-4.15;92.53;101487.56;1678385;85;25466;-76
2021/12/14 03:23:12;;;;;;;76.00;26.00;;;;;;;-4.13;92.75;101487.38;1678333;85;28081;-76
2021/12/14 03:25:43;;;;;;;70.05;26.27;;;;;;;-4.13;92.72;101485.55;1682663;84;25466;-76
2021/12/14 03:28:13;;;;;;;68.25;25.57;;;;;;;-4.11;92.74;101488.52;1691296;84;25661;-76
2021/12/14 03:30:45;;;;;;;70.50;25.70;;;;;;;-4.11;92.77;101485.88;1693023;84;26192;-76
2021/12/14 03:33:18;;;;;;;73.90;25.35;;;;;;;-4.13;92.67;101484.23;1687800;84;25495;-76
2021/12/14 03:35:51;;;;;;;75.08;26.10;;;;;;;-4.15;92.69;101478.83;1693062;84;27357;-76
2021/12/14 03:38:32;;;;;;;71.22;24.20;;;;;;;-4.15;92.75;101482.28;1692921;84;25472;-76
2021/12/14 03:41:12;;;;;;;71.47;24.95;;;;;;;-4.16;92.70;101475.84;1692710;84;25507;-76
2021/12/14 03:43:44;;;;;;;66.37;25.17;;;;;;;-4.19;92.73;101469.12;1692987;83;25633;-76
2021/12/14 03:46:11;;;;;;;69.05;24.57;;;;;;;-4.17;92.80;101470.23;1693096;84;25687;-76
2021/12/14 03:48:40;;;;;;;72.75;25.10;;;;;;;-4.19;92.78;101465.16;1693040;84;27815;-76
2021/12/14 03:51:06;;;;;;;72.72;25.20;;;;;;;-4.17;92.99;101471.08;1693212;84;25424;-76
2021/12/14 03:53:33;;;;;;;64.55;25.50;;;;;;;-4.17;92.94;101469.75;1693040;84;25597;-75
2021/12/14 03:56:05;;;;;;;72.20;26.40;;;;;;;-4.18;92.90;101464.65;1693038;84;25640;-75
2021/12/14 03:58:37;;;;;;;79.10;27.00;;;;;;;-4.17;93.00;101466.27;1693141;84;25671;-75
2021/12/14 04:01:17;;;;;;;83.27;28.50;;;;;;;-4.18;93.09;101468.10;1693024;84;27345;-75
2021/12/14 04:03:49;;;;;;;81.32;27.62;;;;;;;-4.17;93.21;101460.50;1710462;83;25451;-75
2021/12/14 04:06:17;;;;;;;76.28;26.15;;;;;;;-4.16;93.27;101458.67;1693096;84;25406;-75
2021/12/14 04:08:45;;;;;;;72.55;25.85;;;;;;;-4.14;93.34;101458.83;1693097;84;25546;-76
2021/12/14 04:11:14;;;;;;;77.92;25.85;;;;;;;-4.11;93.53;101464.23;1693146;84;25641;-76
2021/12/14 04:13:45;;;;;;;69.33;24.47;;;;;;;-4.08;93.47;101465.19;1693338;84;27401;-76
2021/12/14 04:16:17;;;;;;;62.38;24.15;;;;;;;-4.09;93.26;101451.65;1693062;84;25460;-76
2021/12/14 04:18:45;;;;;;;70.52;24.40;;;;;;;-4.12;93.19;101453.33;1693122;84;25649;-75
2021/12/14 04:21:12;;;;;;;73.33;25.45;;;;;;;-4.11;93.11;101453.66;1692974;84;27132;-76
2021/12/14 04:23:46;;;;;;;69.65;26.55;;;;;;;-4.10;93.08;101457.95;1693131;84;25428;-75
2021/12/14 04:26:15;;;;;;;63.78;25.30;;;;;;;-4.10;93.05;101451.83;1693067;84;27977;-75
2021/12/14 04:28:47;;;;;;;67.05;26.97;;;;;;;-4.15;92.97;101449.25;1692987;84;25635;-75
2021/12/14 04:31:14;;;;;;;62.25;24.65;;;;;;;-4.18;92.92;101459.36;1691264;83;25586;-76
2021/12/14 04:33:46;;;;;;;68.62;25.48;;;;;;;-4.14;93.09;101465.91;1693074;84;25650;-76
2021/12/14 04:36:17;;;;;;;74.15;26.85;;;;;;;-4.14;93.23;101464.11;1693257;83;25585;-76
2021/12/14 04:38:54;;;;;;;63.90;24.60;;;;;;;-4.11;93.09;101460.78;1692854;84;26870;-76
2021/12/14 04:52:22;;;;;;;63.52;23.45;;;;;;;-4.16;92.72;101440.17;1693194;84;27340;-76
2021/12/14 04:55:00;;;;;;;60.88;21.97;;;;;;;-4.23;92.58;101442.73;1682963;84;25530;-76
2021/12/14 04:57:36;;;;;;;61.15;22.70;;;;;;;-4.26;92.60;101454.16;1693201;83;25413;-75
2021/12/14 05:00:34;;;;;;;65.08;23.15;;;;;;;-4.28;92.74;101454.34;1682984;84;25664;-75
2021/12/14 05:03:06;;;;;;;64.42;23.27;;;;;;;-4.32;92.78;101454.41;1693339;84;25592;-75
2021/12/14 05:05:41;;;;;;;64.50;22.87;;;;;;;-4.32;92.84;101451.25;1692406;84;27337;-75
2021/12/14 05:10:59;;;;;;;57.78;21.23;;;;;;;-4.31;92.95;101458.66;1693154;84;25643;-75
2021/12/14 05:13:34;;;;;;;58.87;22.60;;;;;;;-4.29;93.10;101456.69;1693143;84;25641;-75
2021/12/14 05:16:03;;;;;;;63.30;23.70;;;;;;;-4.29;93.03;101467.25;1692502;83;25464;-76
2021/12/14 05:18:30;;;;;;;58.70;22.98;;;;;;;-4.29;93.03;101464.61;1667509;84;28133;-76
2021/12/14 05:20:58;;;;;;;60.78;23.35;;;;;;;-4.28;93.03;101458.31;1693011;84;25484;-76
2021/12/14 05:23:32;;;;;;;60.67;22.65;;;;;;;-4.25;93.14;101462.42;1693126;84;25491;-76
2021/12/14 05:26:03;;;;;;;62.83;22.17;;;;;;;-4.25;93.20;101452.66;1690153;84;25625;-76
2021/12/14 05:28:32;;;;;;;58.02;22.82;;;;;;;-4.21;93.32;101456.57;1678358;84;25486;-75
2021/12/14 05:31:01;;;;;;;65.87;22.65;;;;;;;-4.19;93.12;101463.00;1658553;85;27307;-76
2021/12/14 05:33:32;;;;;;;61.83;22.25;;;;;;;-4.17;93.11;101447.77;1678163;85;25421;-76
2021/12/14 05:36:04;;;;;;;66.05;24.12;;;;;;;-4.17;93.15;101442.01;1678279;85;25604;-75
2021/12/14 05:38:47;;;;;;;63.25;23.12;;;;;;;-4.19;92.89;101444.02;1656597;85;25657;-75
2021/12/14 05:43:05;;;;;;;60.52;21.25;;;;;;;-4.23;92.74;101444.05;1677311;84;25393;-75
2021/12/14 05:43:38;;;;;;;;;;;;;;;-4.25;92.85;101444.73;1677769;85;27400;-75
2021/12/14 05:46:07;;;;;;;62.53;20.85;;;;;;;-4.26;92.74;101446.23;1656793;85;25619;-75
2021/12/14 05:48:37;;;;;;;60.65;24.40;;;;;;;-4.28;92.86;101458.81;1678424;84;25586;-75
2021/12/14 05:51:08;;;;;;;62.33;21.10;;;;;;;-4.28;92.96;101454.34;1678342;85;25723;-75
2021/12/14 05:53:42;;;;;;;69.92;23.90;;;;;;;-4.26;93.09;101449.69;1678320;85;25485;-75
2021/12/14 05:56:14;;;;;;;64.90;24.12;;;;;;;-4.29;92.78;101443.95;1678270;85;27331;-75
2021/12/14 05:58:42;;;;;;;62.50;22.55;;;;;;;-4.32;92.76;101446.48;1678224;85;25595;-75
2021/12/14 06:01:13;;;;;;;62.15;22.98;;;;;;;-4.34;92.77;101446.66;1678355;84;25484;-75
2021/12/14 06:03:46;;;;;;;61.20;21.73;;;;;;;-4.35;92.85;101435.76;1658437;85;25595;-75
2021/12/14 06:06:18;;;;;;;52.73;19.87;;;;;;;-4.36;92.83;101435.94;1678269;84;25662;-75
2021/12/14 06:08:45;;;;;;;54.65;20.68;;;;;;;-4.39;92.73;101435.81;1678148;85;27354;-75
2021/12/14 06:11:24;;;;;;;61.02;19.98;;;;;;;-4.39;92.84;101431.85;1678142;85;25624;-75
2021/12/14 06:13:51;;;;;;;49.40;19.67;;;;;;;-4.38;92.70;101440.08;1678501;85;25452;-74
2021/12/14 06:16:29;;;;;;;49.00;19.10;;;;;;;-4.45;92.51;101431.76;1678192;85;25630;-74
2021/12/14 06:19:07;;;;;;;48.58;17.35;;;;;;;-4.47;92.43;101443.82;1676470;84;25182;-74
2021/12/14 06:21:33;;;;;;;45.83;18.17;;;;;;;-4.53;92.26;101426.89;1659578;85;27581;-75
2021/12/14 06:24:07;;;;;;;50.92;18.67;;;;;;;-4.57;92.32;101434.02;1678277;85;25969;-74
2021/12/14 06:26:41;;;;;;;45.38;19.50;;;;;;;-4.59;92.47;101436.84;1678194;84;26467;-74
2021/12/14 06:29:16;;;;;;;52.08;19.17;;;;;;;-4.58;92.56;101434.53;1658358;85;26155;-75
2021/12/14 06:31:43;;;;;;;49.48;19.85;;;;;;;-4.60;92.52;101429.91;1678249;85;25406;-75
2021/12/14 06:34:24;;;;;;;56.20;20.62;;;;;;;-4.63;92.42;101435.57;1678228;85;27423;-73
2021/12/14 06:37:07;;;;;;;58.52;19.80;;;;;;;-4.67;92.38;101426.36;1678197;84;25629;-75
2021/12/14 06:40:04;;;;;;;57.93;20.27;;;;;;;-4.70;92.37;101430.67;1678278;85;25429;-74
2021/12/14 06:42:33;;;;;;;54.67;20.47;;;;;;;-4.74;92.49;101426.25;1678452;84;26300;-75
2021/12/14 06:45:15;;;;;;;52.88;20.88;;;;;;;-4.71;92.74;101431.17;1678242;85;25550;-74
2021/12/14 06:47:44;;;;;;;64.27;21.60;;;;;;;-4.71;92.79;101423.77;1677969;85;27358;-74
2021/12/14 06:50:16;;;;;;;59.77;21.80;;;;;;;-4.67;92.86;101426.86;1678084;84;25811;-75
2021/12/14 06:52:44;;;;;;;56.88;21.73;;;;;;;-4.63;93.08;101422.38;1678033;84;25435;-75
2021/12/14 06:55:24;;;;;;;56.45;21.42;;;;;;;-4.58;93.18;101417.84;1658387;85;25988;-74
2021/12/14 06:57:51;;;;;;;52.27;21.30;;;;;;;-4.57;92.91;101419.50;1678298;85;25675;-74
2021/12/14 07:00:19;;;;;;;50.60;20.25;;;;;;;-4.57;92.75;101416.86;1678381;85;27436;-74
2021/12/14 07:02:49;;;;;;;62.17;22.95;;;;;;;-4.58;92.57;101417.84;1678152;85;25461;-75
2021/12/14 07:05:25;;;;;;;53.10;20.10;;;;;;;-4.57;92.71;101420.31;1678229;85;25606;-73
2021/12/14 07:07:53;;;;;;;55.70;22.00;;;;;;;-4.59;92.65;101405.16;1678202;85;25648;-73
2021/12/14 07:10:20;;;;;;;51.68;19.07;;;;;;;-4.58;92.53;101405.48;1678275;85;25564;-75
2021/12/14 07:12:48;;;;;;;57.23;21.42;;;;;;;-4.59;92.47;101413.08;1678206;85;27424;-75
2021/12/14 07:15:25;;;;;;;55.45;20.60;;;;;;;-4.59;92.45;101406.98;1658713;85;25643;-75
2021/12/14 07:18:02;;;;;;;47.98;19.07;;;;;;;-4.64;92.32;101408.02;1678353;85;25680;-74
2021/12/14 07:20:49;;;;;;;46.02;17.90;;;;;;;-4.63;92.38;101404.37;1677613;84;26195;-74
2021/12/14 07:23:28;;;;;;;46.77;17.17;;;;;;;-4.63;92.39;101408.33;1657248;85;25488;-75
2021/12/14 07:26:13;;;;;;;55.38;19.00;;;;;;;-4.65;92.30;101423.02;1676740;85;27289;-74
2021/12/14 07:28:44;;;;;;;52.35;18.37;;;;;;;-4.68;92.31;101420.77;1693056;84;25594;-74
2021/12/14 07:31:18;;;;;;;45.95;18.17;;;;;;;-4.66;92.49;101417.95;1693145;84;25464;-74
2021/12/14 07:33:54;;;;;;;51.00;20.12;;;;;;;-4.62;92.75;101416.07;1693391;84;25720;-75
2021/12/14 07:36:26;;;;;;;50.50;19.15;;;;;;;-4.63;92.56;101413.13;1695756;84;25245;-74
2021/12/14 07:39:12;;;;;;;46.42;20.52;;;;;;;-4.64;92.44;101414.11;1695260;84;27328;-75
2021/12/14 07:41:46;;;;;;;47.23;17.35;;;;;;;-4.61;92.58;101410.31;1693022;84;25402;-75
2021/12/14 07:44:24;;;;;;;48.70;20.62;;;;;;;-4.59;92.70;101406.47;1693487;84;25614;-75
2021/12/14 07:47:08;;;;;;;50.08;19.87;;;;;;;-4.58;92.50;101405.97;1693094;84;25418;-74
2021/12/14 07:49:54;;;;;;;54.27;19.92;;;;;;;-4.61;92.30;101413.77;1693191;84;25794;-74
2021/12/14 07:52:25;;;;;;;47.75;20.92;;;;;;;-4.62;92.22;101420.55;1692411;83;27353;-75
2021/12/14 07:55:05;;;;;;;53.45;22.27;;;;;;;-4.65;92.33;101413.78;1693150;84;25467;-73
2021/12/14 07:57:36;;;;;;;52.73;22.07;;;;;;;-4.64;92.38;101418.08;1693212;84;25404;-74
2021/12/14 08:00:11;;;;;;;58.75;21.77;;;;;;;-4.64;92.48;101421.23;1693090;84;25622;-75
2021/12/14 08:02:45;;;;;;;55.17;22.13;;;;;;;-4.63;92.59;101428.97;1693120;84;25444;-75
2021/12/14 08:05:33;;;;;;;55.63;23.65;;;;;;;-4.62;92.59;101433.23;1693171;84;27988;-74
2021/12/14 08:08:20;;;;;;;52.98;21.30;;;;;;;-4.58;92.75;101423.13;1693029;84;25795;-74
2021/12/14 08:11:08;;;;;;;52.85;21.65;;;;;;;-4.58;92.81;101421.33;1691205;84;25460;-74
2021/12/14 08:13:24;;;;;;;51.95;22.22;;;;;;;-4.54;92.83;101425.74;1687478;83;25661;-75
2021/12/14 08:16:00;;;;;;;51.40;22.70;;;;;;;-4.51;93.02;101438.08;1693637;84;25629;-74
2021/12/14 08:18:31;;;;;;;52.08;21.37;;;;;;;-4.47;92.86;101435.89;1693143;84;29070;-74
2021/12/14 08:21:05;;;;;;;53.83;22.20;;;;;;;-4.45;92.77;101431.76;1693057;84;25423;-74
2021/12/14 08:23:42;;;;;;;55.67;22.95;;;;;;;-4.42;92.86;101428.76;1693206;84;25599;-74
2021/12/14 08:26:29;;;;;;;49.80;22.17;;;;;;;-4.36;93.06;101435.45;1682968;84;25504;-74
2021/12/14 08:29:01;;;;;;;52.80;22.35;;;;;;;-4.34;92.85;101433.45;1712933;82;25560;-74
2021/12/14 08:31:36;;;;;;;49.25;20.97;;;;;;;-4.29;92.85;101438.19;1667143;84;27932;-74
2021/12/14 08:34:11;;;;;;;57.43;22.02;;;;;;;-4.22;93.31;101437.77;1693106;84;25593;-75
2021/12/14 08:36:42;;;;;;;60.63;24.05;;;;;;;-4.11;93.61;101436.99;1692686;83;25567;-74
2021/12/14 08:39:23;;;;;;;52.93;22.62;;;;;;;-4.05;93.23;101426.98;1693161;84;25638;-75
2021/12/14 08:41:59;;;;;;;49.83;22.02;;;;;;;-4.04;92.96;101429.96;1693162;84;25497;-74
2021/12/14 08:44:35;;;;;;;53.20;22.50;;;;;;;-4.03;92.71;101430.30;1665782;84;27379;-75
2021/12/14 08:46:58;;;;;;;48.83;21.82;;;;;;;-4.07;92.47;101424.55;1692153;84;25758;-74
2021/12/14 08:49:25;;;;;;;51.53;22.40;;;;;;;-4.03;92.79;101419.20;1693237;84;25575;-74
2021/12/14 08:51:51;;;;;;;66.05;25.72;;;;;;;-3.97;93.08;101415.84;1693218;84;25707;-74
2021/12/14 08:54:29;;;;;;;68.12;26.20;;;;;;;-3.94;92.86;101421.24;1693324;84;25408;-75
2021/12/14 08:57:10;;;;;;;71.30;28.35;;;;;;;-3.91;92.92;101420.06;1693180;84;28021;-74
2021/12/14 08:59:41;;;;;;;63.35;27.45;;;;;;;-3.90;92.67;101423.01;1693071;84;25447;-74
2021/12/14 09:02:12;;;;;;;63.25;25.62;;;;;;;-3.85;92.93;101417.98;1693115;84;25388;-74
2021/12/14 09:04:47;;;;;;;64.42;26.97;;;;;;;-3.84;92.53;101418.31;1693158;84;25639;-74
2021/12/14 09:07:21;;;;;;;66.37;25.85;;;;;;;-3.87;92.36;101412.07;1693205;84;25582;-75
2021/12/14 09:09:48;;;;;;;66.82;26.05;;;;;;;-3.87;92.39;101412.88;1693146;84;27993;-74
2021/12/14 09:12:24;;;;;;;67.90;28.40;;;;;;;-3.87;92.32;101414.20;1693069;84;25601;-74
2021/12/14 09:14:54;;;;;;;71.72;27.98;;;;;;;-3.91;92.16;101412.95;1693307;84;25488;-74
2021/12/14 09:17:23;;;;;;;67.87;26.82;;;;;;;-3.94;92.27;101419.41;1693122;84;26187;-74
2021/12/14 09:20:00;;;;;;;68.02;27.22;;;;;;;-3.93;92.30;101408.36;1693306;84;25679;-74
2021/12/14 09:22:35;;;;;;;71.20;29.82;;;;;;;-3.93;92.45;101405.71;1693138;84;27342;-75
2021/12/14 09:25:06;;;;;;;67.42;28.23;;;;;;;-3.92;92.61;101409.97;1693168;84;25594;-74
2021/12/14 09:27:35;;;;;;;69.85;27.27;;;;;;;-3.84;93.03;101406.42;1693229;84;25593;-74
2021/12/14 09:30:04;;;;;;;67.87;28.02;;;;;;;-3.84;92.77;101398.48;1693301;84;25625;-75
2021/12/14 09:32:33;;;;;;;;;;;;;;;-3.83;92.76;101400.11;1695720;84;25683;-75
2021/12/14 09:35:04;;;;;;;63.60;23.40;;;;;;;-3.79;92.95;101392.14;1693075;83;27988;-75
2021/12/14 09:37:32;;;;;;;66.92;25.00;;;;;;;-3.78;93.02;101391.95;1693222;84;25408;-75
2021/12/14 09:40:04;;;;;;;69.20;27.07;;;;;;;-3.71;93.21;101392.03;1693206;84;25493;-75
2021/12/14 09:42:33;;;;;;;67.65;26.02;;;;;;;-3.71;92.88;101390.70;1692816;84;25564;-75
2021/12/14 09:45:03;;;;;;;;;;;;;;;-3.69;92.86;101384.72;1685587;84;25621;-74
2021/12/14 09:47:32;;;;;;;;;;;;;;;-3.69;92.55;101379.94;1691440;84;27945;-74
2021/12/14 09:50:06;;;;;;;65.12;26.25;;;;;;;-3.73;92.50;101372.05;1693117;84;25654;-75
2021/12/14 09:52:37;;;;;;;72.20;27.20;;;;;;;-3.70;92.62;101375.64;1692979;84;25520;-75
2021/12/14 09:55:09;;;;;;;70.00;25.50;;;;;;;-3.68;92.71;101381.05;1693142;84;25649;-75
2021/12/14 09:57:42;;;;;;;72.27;26.85;;;;;;;-3.66;92.74;101378.22;1693224;84;25697;-74
2021/12/14 10:00:21;;;;;;;70.78;27.25;;;;;;;-3.62;92.96;101378.98;1693313;84;28024;-74
2021/12/14 10:02:51;;;;;;;76.15;28.45;;;;;;;-3.61;92.73;101375.83;1693103;84;25398;-74
2021/12/14 10:05:29;;;;;;;76.87;28.60;;;;;;;-3.61;92.69;101367.89;1693407;84;25582;-74
2021/12/14 10:08:00;;;;;;;72.50;26.12;;;;;;;-3.64;92.50;101358.52;1694197;83;25632;-75
2021/12/14 10:10:31;;;;;;;67.20;27.30;;;;;;;-3.67;92.46;101359.41;1694349;84;25466;-75
2021/12/14 10:12:56;;;;;;;;;;;;;;;-3.67;92.67;101362.86;1696830;83;27470;-74
2021/12/14 10:15:47;;;;;;;71.80;27.42;;;;;;;-3.61;93.00;101365.25;1706066;83;25680;-75
2021/12/14 10:18:26;;;;;;;68.02;26.17;;;;;;;-3.58;93.17;101364.36;1640659;86;25368;-75
2021/12/14 10:21:08;;;;;;;70.92;26.20;;;;;;;-3.57;93.02;101363.38;1663848;86;25840;-76
2021/12/14 10:23:41;;;;;;;70.70;27.20;;;;;;;-3.53;93.17;101354.55;1664674;86;25642;-75
2021/12/14 10:26:11;;;;;;;74.05;28.90;;;;;;;-3.46;93.63;101349.32;1664499;86;28093;-75
2021/12/14 10:28:41;;;;;;;82.10;29.32;;;;;;;-3.38;93.54;101357.94;1665179;86;25654;-74
2021/12/14 10:31:12;;;;;;;71.50;27.13;;;;;;;-3.34;93.49;101354.92;1640063;86;25436;-74
2021/12/14 10:33:42;;;;;;;75.55;30.52;;;;;;;-3.24;93.84;101357.55;1667299;86;26459;-74
2021/12/14 10:36:23;;;;;;;83.80;29.07;;;;;;;-3.19;93.35;101356.98;1666310;86;25707;-75
2021/12/14 10:39:04;;;;;;;84.10;31.10;;;;;;;-3.15;93.30;101356.09;1663750;86;27359;-73
2021/12/14 10:44:01;;;;;;;87.40;31.87;;;;;;;-3.11;92.90;101353.39;1665769;86;25271;-75
2021/12/14 10:46:39;;;;;;;79.58;30.75;;;;;;;-3.07;93.05;101342.72;1665261;86;26184;-76
2021/12/14 10:49:07;;;;;;;86.42;31.23;;;;;;;-3.03;93.24;101346.13;1665331;86;25645;-75
2021/12/14 10:51:38;;;;;;;78.20;29.82;;;;;;;-2.97;93.29;101353.78;1665266;86;27347;-75
2021/12/14 10:54:12;;;;;;;83.22;31.45;;;;;;;-2.95;93.13;101344.33;1639887;86;25854;-74
2021/12/14 10:56:49;;;;;;;83.07;29.87;;;;;;;-2.89;93.06;101343.05;1665301;86;25473;-75
2021/12/14 10:59:21;;;;;;;79.80;30.05;;;;;;;-2.87;92.81;101338.37;1681037;85;25550;-75
2021/12/14 11:01:50;;;;;;;84.90;32.42;;;;;;;-2.87;92.71;101337.56;1687815;85;25558;-74
2021/12/14 11:04:39;;;;;;;89.50;32.38;;;;;;;-2.88;92.50;101341.22;1688233;85;28038;-74
2021/12/14 11:07:10;;;;;;;78.17;30.32;;;;;;;-2.86;92.70;101334.73;1657689;85;25816;-74
2021/12/14 11:09:43;;;;;;;77.92;31.93;;;;;;;-2.83;92.79;101334.34;1687786;85;25574;-74
2021/12/14 11:12:36;;;;;;;80.15;30.65;;;;;;;-2.82;92.70;101333.31;1687960;85;25629;-75
2021/12/14 11:15:17;;;;;;;83.00;32.28;;;;;;;-2.83;92.59;101331.70;1658457;85;25230;-75
2021/12/14 11:20:52;;;;;;;87.97;32.67;;;;;;;-2.81;92.76;101312.94;1657535;85;25600;-73
2021/12/14 11:23:40;;;;;;;81.20;32.25;;;;;;;-2.81;92.77;101311.61;1687733;85;25609;-76
2021/12/14 11:26:24;;;;;;;84.77;32.98;;;;;;;-2.83;92.72;101301.24;1688087;85;25622;-74
2021/12/14 11:28:56;;;;;;;94.17;34.13;;;;;;;-2.85;92.65;101305.89;1691780;84;25508;-75
2021/12/14 11:31:37;;;;;;;84.17;34.05;;;;;;;-2.87;92.76;101308.44;1695933;84;27983;-74
2021/12/14 11:34:12;;;;;;;88.07;35.28;;;;;;;-2.88;92.80;101306.30;1695864;84;25693;-73
2021/12/14 11:36:50;;;;;;;96.05;34.95;;;;;;;-2.85;93.05;101302.44;1694884;84;25711;-74
2021/12/14 11:39:27;;;;;;;87.80;35.08;;;;;;;-2.83;93.24;101301.24;1695066;84;26058;-73
2021/12/14 11:42:04;;;;;;;94.90;34.10;;;;;;;-2.79;93.27;101304.80;1695916;84;25569;-74
2021/12/14 11:44:39;;;;;;;94.22;35.10;;;;;;;-2.82;92.97;101299.41;1664384;85;27350;-75
2021/12/14 11:50:04;;;;;;;103.22;37.03;;;;;;;-2.84;92.94;101312.02;1683818;85;25438;-74
2021/12/14 11:52:59;;;;;;;98.12;37.65;;;;;;;-2.83;92.98;101316.29;1683885;85;25884;-74
2021/12/14 11:55:31;;;;;;;105.75;38.95;;;;;;;-2.87;92.91;101312.41;1683736;85;25628;-74
2021/12/14 11:58:08;;;;;;;110.10;39.03;;;;;;;-2.88;93.05;101311.60;1683857;85;27980;-74
2021/12/14 12:00:43;;;;;;;114.20;37.90;;;;;;;-2.86;93.34;101308.25;1683636;85;25457;-74
2021/12/14 12:03:46;;;;;;;114.10;39.90;;;;;;;-2.82;93.50;101306.83;1683593;85;25432;-74
2021/12/14 12:09:29;;;;;;;109.00;40.25;;;;;;;-2.81;93.16;101312.94;1692470;84;25609;-74
2021/12/14 12:12:19;;;;;;;103.40;38.98;;;;;;;-2.83;93.17;101299.92;1714827;83;27930;-75
2021/12/14 12:15:09;;;;;;;100.02;37.60;;;;;;;-2.83;93.22;101288.00;1701685;84;25401;-74